Proyecto Fema, Puerto Rico
Current Conditions -  °F | °C
As of 3:53 PM on Monday 22 Dec 2014 (Local Time) from TJNR Reporting Station
Clear Clear  
Wind Chill: 83°   Ceiling: Unl
Heat Index: 88°   Visibility: 10mi
Dew Point: 71°   Wind: 10mph
Humidity: 67%   Direction: 110°ESE
Pressure: 30.01"   Gusts: NA
Location:  18.3304°N, 65.6573°W
Report Text: TJNR 221953Z AUTO 11009KT 10SM CLR 28/22 A3001 RMK AO2 SLP161 T02830217
Loading
Personal Weather Stations






























Interactive Weather Map New forecast layout! Learn more

10-Day Weather Forecast

Advertisements
Track Severe Weather on mobile